createdAt,value
2023-03-22T00:02:12.947Z,1.20
2023-03-22T00:04:26.438Z,0.80
2023-03-22T00:06:38.336Z,3.10
2023-03-22T00:08:51.740Z,3.20
2023-03-22T00:11:05.159Z,2.40
2023-03-22T00:13:18.216Z,2.90
2023-03-22T00:15:32.112Z,4.10
2023-03-22T00:17:45.822Z,2.00
2023-03-22T00:19:59.572Z,1.20
2023-03-22T00:22:12.900Z,1.60
2023-03-22T00:24:25.848Z,1.80
2023-03-22T00:26:38.813Z,1.10
2023-03-22T00:28:53.024Z,1.80
2023-03-22T00:31:08.397Z,0.60
2023-03-22T00:33:23.980Z,2.70
2023-03-22T00:35:36.961Z,2.30
2023-03-22T00:37:51.976Z,3.80
2023-03-22T00:40:05.853Z,2.10
2023-03-22T00:42:19.817Z,2.70
2023-03-22T00:44:34.686Z,4.00
2023-03-22T00:46:47.664Z,3.10
2023-03-22T00:49:01.267Z,2.90
2023-03-22T00:51:15.945Z,6.40
2023-03-22T00:53:30.185Z,8.30
2023-03-22T00:55:43.242Z,2.90
2023-03-22T00:57:56.305Z,9.50
2023-03-22T01:00:17.418Z,8.10
2023-03-22T01:02:31.784Z,4.90
2023-03-22T01:04:47.477Z,2.70
2023-03-22T01:07:03.304Z,2.60
2023-03-22T01:09:16.951Z,1.90
2023-03-22T01:11:31.460Z,3.10
2023-03-22T01:13:44.674Z,4.90
2023-03-22T01:15:58.335Z,3.00
2023-03-22T01:18:11.736Z,7.30
2023-03-22T01:20:25.560Z,3.70
2023-03-22T01:22:39.022Z,4.70
2023-03-22T01:24:53.154Z,2.50
2023-03-22T01:27:06.220Z,3.70
2023-03-22T01:29:19.889Z,2.40
2023-03-22T01:31:32.788Z,4.10
2023-03-22T01:33:45.835Z,2.50
2023-03-22T01:35:59.121Z,3.50
2023-03-22T01:38:12.802Z,2.90
2023-03-22T01:40:35.743Z,3.90
2023-03-22T01:42:48.937Z,4.20
2023-03-22T01:45:32.386Z,9.70
2023-03-22T01:47:49.341Z,6.20
2023-03-22T01:50:02.172Z,4.70
2023-03-22T01:52:19.214Z,4.00
2023-03-22T01:54:51.854Z,5.40
2023-03-22T01:57:25.613Z,5.50
2023-03-22T01:59:40.462Z,2.50
2023-03-22T02:02:20.149Z,4.50
2023-03-22T02:04:43.242Z,3.70
2023-03-22T02:06:58.101Z,7.00
2023-03-22T02:09:15.425Z,2.30
2023-03-22T02:11:37.255Z,8.20
2023-03-22T02:14:18.057Z,4.10
2023-03-22T02:17:00.118Z,5.00
2023-03-22T02:19:46.834Z,5.60
2023-03-22T02:22:40.568Z,5.70
2023-03-22T02:25:18.918Z,3.90
2023-03-22T02:28:05.934Z,5.30
2023-03-22T02:30:43.558Z,4.20
2023-03-22T02:33:28.593Z,7.40
2023-03-22T02:35:59.232Z,6.70
2023-03-22T02:38:34.445Z,5.00
2023-03-22T02:40:53.662Z,6.30
2023-03-22T02:43:17.719Z,6.30
2023-03-22T02:45:38.007Z,6.70
2023-03-22T02:48:01.837Z,6.90
2023-03-22T02:50:19.550Z,6.00
2023-03-22T02:52:42.225Z,4.90
2023-03-22T02:55:02.372Z,5.40
2023-03-22T02:57:20.301Z,13.00
2023-03-22T02:59:38.914Z,8.00
2023-03-22T03:01:55.275Z,5.90
2023-03-22T03:04:13.197Z,6.00
2023-03-22T03:06:30.252Z,26.50
2023-03-22T03:08:44.925Z,24.20
2023-03-22T03:10:59.034Z,24.00
2023-03-22T03:13:14.415Z,8.80
2023-03-22T03:15:28.965Z,7.70
2023-03-22T03:17:57.194Z,9.40
2023-03-22T03:20:31.386Z,3.40
2023-03-22T03:23:00.929Z,5.00
2023-03-22T03:25:25.150Z,7.30
2023-03-22T03:27:45.335Z,4.50
2023-03-22T03:30:04.983Z,8.60
2023-03-22T03:32:26.881Z,8.80
2023-03-22T03:34:50.787Z,6.80
2023-03-22T03:37:09.564Z,3.70
2023-03-22T03:39:28.529Z,3.50
2023-03-22T03:41:43.870Z,4.50
2023-03-22T03:43:59.658Z,2.50
2023-03-22T03:46:20.953Z,8.20
2023-03-22T03:48:37.257Z,7.10
2023-03-22T03:50:56.374Z,3.30
2023-03-22T03:53:09.754Z,5.10
2023-03-22T03:55:35.610Z,6.70
2023-03-22T03:57:48.801Z,4.70
2023-03-22T04:00:02.525Z,8.70
2023-03-22T04:02:49.690Z,5.50
2023-03-22T04:05:28.056Z,1.60
2023-03-22T04:07:44.817Z,3.10
2023-03-22T04:09:58.184Z,3.70
2023-03-22T04:12:15.506Z,3.60
2023-03-22T04:14:37.345Z,8.80
2023-03-22T04:16:57.624Z,4.40
2023-03-22T04:19:10.556Z,9.30
2023-03-22T04:21:24.057Z,7.10
2023-03-22T04:23:47.949Z,6.60
2023-03-22T04:26:02.533Z,11.20
2023-03-22T04:28:30.268Z,6.90
2023-03-22T04:30:47.136Z,7.60
2023-03-22T04:33:08.919Z,9.80
2023-03-22T04:35:57.856Z,2.30
2023-03-22T04:38:22.216Z,4.70
2023-03-22T04:40:47.961Z,9.20
2023-03-22T04:43:13.742Z,6.10
2023-03-22T04:45:33.584Z,5.80
2023-03-22T04:47:48.410Z,6.00
2023-03-22T04:50:02.079Z,8.80
2023-03-22T04:52:19.573Z,3.60
2023-03-22T04:54:37.950Z,9.10
2023-03-22T04:57:04.786Z,5.10
2023-03-22T04:59:23.904Z,5.70
2023-03-22T05:01:47.101Z,6.00
2023-03-22T05:04:03.008Z,7.80
2023-03-22T05:06:20.676Z,3.40
2023-03-22T05:08:44.757Z,7.50
2023-03-22T05:11:03.033Z,6.60
2023-03-22T05:13:16.620Z,5.50
2023-03-22T05:15:36.821Z,6.50
2023-03-22T05:17:55.515Z,4.80
2023-03-22T05:20:13.273Z,2.30
2023-03-22T05:22:33.130Z,5.40
2023-03-22T05:24:49.877Z,4.70
2023-03-22T05:27:09.603Z,8.10
2023-03-22T05:29:28.311Z,13.70
2023-03-22T05:31:55.844Z,9.10
2023-03-22T05:34:10.914Z,6.30
2023-03-22T05:36:26.106Z,7.10
2023-03-22T05:39:00.798Z,4.80
2023-03-22T05:41:19.186Z,3.50
2023-03-22T05:43:38.496Z,2.20
2023-03-22T05:45:52.291Z,2.80
2023-03-22T05:48:31.798Z,3.70
2023-03-22T05:50:50.948Z,8.70
2023-03-22T05:53:04.686Z,5.60
2023-03-22T05:55:26.541Z,3.50
2023-03-22T05:57:44.635Z,4.30
2023-03-22T05:59:58.409Z,3.60
2023-03-22T06:02:31.181Z,2.80
2023-03-22T06:04:47.939Z,9.60
2023-03-22T06:07:03.464Z,5.80
2023-03-22T06:09:26.949Z,5.90
2023-03-22T06:11:40.391Z,5.10
2023-03-22T06:13:54.791Z,5.30
2023-03-22T06:16:11.344Z,3.00
2023-03-22T06:18:24.501Z,6.10
2023-03-22T06:20:43.501Z,6.10
2023-03-22T06:23:01.288Z,5.10
2023-03-22T06:25:17.025Z,6.10
2023-03-22T06:27:35.321Z,4.10
2023-03-22T06:29:51.938Z,6.20
2023-03-22T06:32:07.597Z,4.50
2023-03-22T06:34:21.089Z,7.20
2023-03-22T06:36:35.578Z,4.30
2023-03-22T06:38:51.512Z,5.60
2023-03-22T06:41:05.936Z,10.60
2023-03-22T06:43:19.031Z,10.50
2023-03-22T06:45:34.903Z,9.50
2023-03-22T06:47:48.481Z,13.80
2023-03-22T06:50:31.101Z,9.10
2023-03-22T06:52:51.413Z,5.90
2023-03-22T06:55:04.868Z,7.70
2023-03-22T06:57:17.949Z,5.10
2023-03-22T06:59:32.319Z,5.40
2023-03-22T07:01:45.355Z,6.10
2023-03-22T07:03:59.036Z,4.40
2023-03-22T07:06:13.335Z,7.70
2023-03-22T07:08:28.533Z,2.30
2023-03-22T07:10:42.007Z,10.10
2023-03-22T07:12:56.270Z,6.10
2023-03-22T07:15:10.724Z,6.20
2023-03-22T07:17:38.662Z,3.70
2023-03-22T07:19:51.943Z,3.10
2023-03-22T07:22:08.426Z,32.30
2023-03-22T07:24:21.548Z,26.60
2023-03-22T07:26:35.893Z,15.80
2023-03-22T07:28:48.870Z,18.60
2023-03-22T07:31:08.886Z,21.50
2023-03-22T07:33:30.668Z,22.60
2023-03-22T07:35:44.375Z,17.30
2023-03-22T07:37:57.662Z,17.40
2023-03-22T07:40:16.585Z,13.20
2023-03-22T07:42:29.947Z,11.10
2023-03-22T07:45:01.129Z,29.50
2023-03-22T07:47:40.901Z,27.80
2023-03-22T07:50:00.461Z,11.80
2023-03-22T07:54:43.896Z,12.50
2023-03-22T07:56:57.042Z,9.80
2023-03-22T07:59:10.637Z,2.40
2023-03-22T08:01:24.020Z,8.50
2023-03-22T08:04:00.317Z,4.40
2023-03-22T08:06:38.214Z,6.50
2023-03-22T08:08:51.723Z,7.50
2023-03-22T08:11:05.216Z,5.50
2023-03-22T08:13:18.229Z,3.20
2023-03-22T08:15:31.420Z,5.20
2023-03-22T08:17:44.961Z,8.50
2023-03-22T08:20:06.530Z,4.30
2023-03-22T08:22:30.978Z,5.30
2023-03-22T08:25:19.351Z,2.70
2023-03-22T08:27:34.388Z,2.00
2023-03-22T08:29:48.478Z,4.00
2023-03-22T08:32:03.627Z,5.00
2023-03-22T08:34:17.498Z,6.90
2023-03-22T08:36:31.499Z,5.00
2023-03-22T08:38:47.875Z,2.30
2023-03-22T08:41:03.411Z,4.60
2023-03-22T08:43:16.593Z,2.50
2023-03-22T08:45:30.128Z,2.90
2023-03-22T08:47:55.697Z,2.10
2023-03-22T08:50:10.830Z,5.90
2023-03-22T08:52:33.884Z,2.20
2023-03-22T08:54:53.726Z,5.10
2023-03-22T08:57:25.406Z,3.60
2023-03-22T08:59:53.386Z,1.30
2023-03-22T09:02:21.628Z,3.90
2023-03-22T09:04:35.832Z,4.00
2023-03-22T09:06:49.330Z,2.50
2023-03-22T09:09:03.552Z,1.50
2023-03-22T09:11:18.008Z,2.00
2023-03-22T09:13:33.003Z,4.20
2023-03-22T09:15:47.817Z,3.20
2023-03-22T09:18:10.226Z,3.40
2023-03-22T09:20:26.685Z,3.80
2023-03-22T09:22:41.195Z,2.00
2023-03-22T09:24:55.257Z,2.70
2023-03-22T09:27:08.330Z,1.30
2023-03-22T09:29:22.611Z,2.10
2023-03-22T09:31:35.915Z,3.00
2023-03-22T09:33:59.333Z,1.60
2023-03-22T09:36:13.548Z,1.50
2023-03-22T09:38:28.513Z,1.10
2023-03-22T09:40:50.174Z,3.90
2023-03-22T09:43:08.602Z,2.20
2023-03-22T09:45:26.302Z,1.50
2023-03-22T09:47:45.249Z,1.30
2023-03-22T09:50:06.803Z,2.40
2023-03-22T09:52:20.731Z,1.60
2023-03-22T09:54:38.985Z,2.10
2023-03-22T09:56:54.426Z,1.40
2023-03-22T09:59:15.613Z,1.40
2023-03-22T10:01:38.793Z,5.30
2023-03-22T10:04:16.355Z,3.70
2023-03-22T10:06:31.778Z,3.30
2023-03-22T10:08:56.692Z,1.40
2023-03-22T10:11:18.811Z,1.60
2023-03-22T10:13:44.442Z,2.80
2023-03-22T10:16:00.314Z,3.30
2023-03-22T10:18:16.704Z,1.60
2023-03-22T10:20:40.926Z,4.60
2023-03-22T10:22:57.471Z,3.90
2023-03-22T10:25:12.300Z,5.10
2023-03-22T10:27:27.399Z,2.10
2023-03-22T10:29:47.530Z,1.00
2023-03-22T10:32:03.660Z,2.00
2023-03-22T10:34:23.890Z,2.00
2023-03-22T10:36:38.333Z,1.50
2023-03-22T10:38:53.541Z,1.40
2023-03-22T10:41:08.461Z,7.70
2023-03-22T10:43:27.255Z,1.40
2023-03-22T10:45:40.891Z,1.70
2023-03-22T10:48:01.233Z,1.40
2023-03-22T10:50:21.528Z,2.00
2023-03-22T10:52:44.483Z,3.30
2023-03-22T10:55:03.039Z,2.70
2023-03-22T10:57:17.415Z,2.20
2023-03-22T10:59:50.819Z,1.90
2023-03-22T11:02:04.785Z,1.40
2023-03-22T11:04:20.167Z,2.50
2023-03-22T11:06:36.043Z,2.40
2023-03-22T11:08:51.358Z,1.80
2023-03-22T11:11:05.006Z,3.10
2023-03-22T11:13:25.583Z,2.60
2023-03-22T11:15:40.946Z,2.80
2023-03-22T11:17:54.612Z,1.70
2023-03-22T11:20:11.026Z,2.90
2023-03-22T11:22:37.280Z,2.10
2023-03-22T11:24:54.232Z,1.90
2023-03-22T11:27:22.743Z,2.50
2023-03-22T11:29:46.366Z,2.30
2023-03-22T11:32:03.642Z,2.80
2023-03-22T11:34:23.509Z,3.10
2023-03-22T11:36:45.461Z,1.70
2023-03-22T11:39:09.429Z,3.90
2023-03-22T11:41:27.909Z,2.10
2023-03-22T11:43:43.507Z,3.70
2023-03-22T11:45:58.973Z,2.00
2023-03-22T11:48:18.246Z,2.10
2023-03-22T11:50:35.741Z,3.00
2023-03-22T11:52:53.156Z,1.50
2023-03-22T11:55:07.895Z,2.60
2023-03-22T11:57:24.807Z,1.20
2023-03-22T11:59:43.688Z,3.50
2023-03-22T12:02:01.914Z,5.00
2023-03-22T12:04:23.715Z,3.00
2023-03-22T12:06:41.143Z,1.10
2023-03-22T12:08:58.784Z,3.50
2023-03-22T12:11:16.697Z,2.10
2023-03-22T12:13:36.205Z,1.60
2023-03-22T12:15:52.539Z,1.90
2023-03-22T12:18:10.301Z,2.80
2023-03-22T12:20:35.420Z,1.80
2023-03-22T12:22:53.835Z,2.30
2023-03-22T12:25:13.506Z,3.80
2023-03-22T12:27:31.028Z,3.10
2023-03-22T12:29:49.293Z,1.00
2023-03-22T12:32:08.356Z,2.00
2023-03-22T12:34:22.876Z,4.60
2023-03-22T12:36:43.009Z,3.40
2023-03-22T12:38:59.874Z,2.10
2023-03-22T12:41:18.171Z,2.00
2023-03-22T12:43:47.966Z,2.00
2023-03-22T12:46:07.617Z,3.30
2023-03-22T12:48:23.882Z,2.30
2023-03-22T12:50:41.763Z,1.60
2023-03-22T12:52:57.992Z,4.50
2023-03-22T12:55:16.136Z,7.30
2023-03-22T12:57:29.278Z,1.90
2023-03-22T12:59:46.430Z,3.10
2023-03-22T13:02:02.845Z,2.50
2023-03-22T13:04:54.448Z,2.90
2023-03-22T13:07:17.769Z,2.00
2023-03-22T13:09:45.768Z,4.60
2023-03-22T13:12:32.993Z,5.30
2023-03-22T13:15:07.851Z,1.90
2023-03-22T13:17:37.843Z,2.90
2023-03-22T13:19:58.480Z,1.80
2023-03-22T13:22:30.461Z,2.10
2023-03-22T13:25:05.047Z,2.00
2023-03-22T13:27:19.462Z,5.00
2023-03-22T13:29:43.150Z,2.10
2023-03-22T13:32:03.751Z,2.30
2023-03-22T13:34:25.498Z,1.50
2023-03-22T13:36:38.934Z,3.20
2023-03-22T13:39:00.778Z,3.50
2023-03-22T13:41:20.979Z,4.60
2023-03-22T13:43:39.847Z,2.60
2023-03-22T13:46:30.631Z,4.70
2023-03-22T13:49:17.685Z,2.90
2023-03-22T13:51:35.734Z,2.10
2023-03-22T13:53:59.122Z,6.70
2023-03-22T13:56:18.904Z,3.00
2023-03-22T13:58:52.613Z,3.40
2023-03-22T14:01:11.137Z,4.00
2023-03-22T14:03:31.572Z,6.10
2023-03-22T14:05:48.195Z,4.80
2023-03-22T14:08:03.719Z,5.70
2023-03-22T14:10:22.064Z,5.60
2023-03-22T14:12:48.615Z,4.90
2023-03-22T14:15:05.313Z,4.20
2023-03-22T14:17:30.695Z,3.00
2023-03-22T14:19:44.675Z,4.30
